Time;durP1;ratioP1;P1;durP2;ratioP2;P2;SDS_P1;SDS_P2;PMS_P1;PMS_P2;Temp;Humidity;BMP_temperature;BMP_pressure;BME280_temperature;BME280_humidity;BME280_pressure;Samples;Min_cycle;Max_cycle;Signal;HPM_P1;HPM_P2
2022/08/21 00:01:21;;;;;;;0.10;0.10;;;16.60;99.90;;;;;;5117173;28;20501;-80
2022/08/21 00:03:47;;;;;;;1.30;0.38;;;16.50;99.90;;;;;;5099789;28;20523;-80
2022/08/21 00:06:13;;;;;;;0.00;0.00;;;16.50;99.90;;;;;;5116469;28;20083;-80
2022/08/21 00:08:39;;;;;;;0.00;0.00;;;16.50;99.90;;;;;;5116819;28;20085;-80
2022/08/21 00:11:05;;;;;;;0.00;0.00;;;16.50;99.90;;;;;;5099613;28;20039;-80
2022/08/21 00:13:34;;;;;;;0.00;0.00;;;16.50;99.90;;;;;;5116437;28;20050;-80
2022/08/21 00:16:00;;;;;;;0.00;0.00;;;16.50;99.90;;;;;;5099404;28;20054;-80
2022/08/21 00:18:26;;;;;;;0.00;0.00;;;16.50;99.90;;;;;;5116370;28;20039;-80
2022/08/21 00:20:52;;;;;;;0.10;0.03;;;16.50;99.90;;;;;;5116278;28;20047;-80
2022/08/21 00:23:18;;;;;;;0.00;0.00;;;16.50;99.90;;;;;;5099195;28;20408;-80
2022/08/21 00:25:44;;;;;;;0.52;0.00;;;16.50;99.90;;;;;;5116423;28;20055;-80
2022/08/21 00:28:11;;;;;;;0.00;0.00;;;16.50;99.90;;;;;;5099351;28;20548;-80
2022/08/21 00:30:37;;;;;;;0.00;0.00;;;16.40;99.90;;;;;;5116451;28;20541;-80
2022/08/21 00:33:04;;;;;;;0.00;0.00;;;16.50;99.90;;;;;;5116259;28;20108;-80
2022/08/21 00:35:33;;;;;;;0.10;0.10;;;16.50;99.90;;;;;;5099414;28;20048;-80
2022/08/21 00:37:59;;;;;;;0.55;0.10;;;16.50;99.90;;;;;;5099071;28;20074;-80
2022/08/21 00:40:36;;;;;;;0.10;0.10;;;16.50;99.90;;;;;;5116161;28;20483;-80
2022/08/21 00:43:05;;;;;;;0.00;0.00;;;16.50;99.90;;;;;;5115833;28;20085;-80
2022/08/21 00:45:31;;;;;;;0.10;0.10;;;16.50;99.90;;;;;;5115893;28;20073;-79
2022/08/21 00:47:57;;;;;;;0.00;0.00;;;16.50;99.90;;;;;;5115884;28;20177;-80
2022/08/21 00:50:28;;;;;;;0.00;0.00;;;16.40;99.90;;;;;;5114541;28;20184;-80
2022/08/21 00:52:55;;;;;;;0.00;0.00;;;16.40;99.90;;;;;;5116670;28;20043;-80
2022/08/21 00:55:22;;;;;;;0.00;0.00;;;16.40;99.90;;;;;;5098747;28;20056;-80
2022/08/21 00:57:53;;;;;;;0.00;0.00;;;16.40;99.90;;;;;;5098491;28;20134;-80
2022/08/21 01:00:24;;;;;;;0.00;0.00;;;16.30;99.90;;;;;;5115649;28;20480;-80
2022/08/21 01:02:49;;;;;;;0.00;0.00;;;16.40;99.90;;;;;;5115606;28;20046;-80
2022/08/21 01:05:16;;;;;;;0.00;0.00;;;16.30;99.90;;;;;;5115516;28;20036;-80
2022/08/21 01:07:44;;;;;;;0.00;0.00;;;16.30;99.90;;;;;;5115555;28;20051;-80
2022/08/21 01:10:10;;;;;;;0.00;0.00;;;16.30;99.90;;;;;;5098698;28;20062;-80
2022/08/21 01:12:36;;;;;;;0.00;0.00;;;16.20;99.90;;;;;;5115410;28;20051;-80
2022/08/21 01:15:05;;;;;;;0.00;0.00;;;16.20;99.90;;;;;;5115273;28;20044;-80
2022/08/21 01:17:32;;;;;;;0.00;0.00;;;16.20;99.90;;;;;;5098226;28;20048;-80
2022/08/21 01:19:58;;;;;;;0.00;0.00;;;16.10;99.90;;;;;;5114862;28;20075;-80
2022/08/21 01:22:24;;;;;;;0.00;0.00;;;16.10;99.90;;;;;;5115028;28;20032;-79
2022/08/21 01:24:50;;;;;;;0.00;0.00;;;16.00;99.90;;;;;;5115180;28;20044;-80
2022/08/21 01:27:16;;;;;;;0.00;0.00;;;16.10;99.90;;;;;;5115047;28;20070;-80
2022/08/21 01:29:54;;;;;;;0.00;0.00;;;16.00;99.90;;;;;;5098151;28;20059;-80
2022/08/21 01:32:20;;;;;;;0.20;0.20;;;16.00;99.90;;;;;;5098214;28;20044;-80
2022/08/21 01:34:49;;;;;;;0.00;0.00;;;16.00;99.90;;;;;;5097974;28;20040;-80
2022/08/21 01:37:15;;;;;;;0.43;0.00;;;16.00;99.90;;;;;;5097599;28;20126;-80
2022/08/21 01:39:42;;;;;;;0.20;0.20;;;16.00;99.90;;;;;;5114598;28;20036;-80
2022/08/21 01:42:08;;;;;;;0.00;0.00;;;15.90;99.90;;;;;;5097866;28;20047;-80
2022/08/21 01:44:34;;;;;;;0.00;0.00;;;15.90;99.90;;;;;;5114654;28;20036;-80
2022/08/21 01:47:04;;;;;;;0.00;0.00;;;15.90;99.90;;;;;;5114744;28;20390;-80
2022/08/21 01:49:29;;;;;;;0.00;0.00;;;15.90;99.90;;;;;;5114661;28;20054;-80
2022/08/21 01:51:55;;;;;;;0.00;0.00;;;15.90;99.90;;;;;;5114542;28;20135;-80
2022/08/21 01:54:23;;;;;;;0.00;0.00;;;15.80;99.90;;;;;;5114237;28;20044;-80
2022/08/21 01:56:52;;;;;;;0.00;0.00;;;15.80;99.90;;;;;;5113964;28;20138;-80
2022/08/21 01:59:18;;;;;;;0.00;0.00;;;15.70;99.90;;;;;;5097139;28;20138;-80
2022/08/21 02:01:44;;;;;;;0.00;0.00;;;15.70;99.90;;;;;;5114436;28;20040;-80
2022/08/21 02:04:10;;;;;;;0.25;0.20;;;15.70;99.90;;;;;;5114396;28;20487;-80
2022/08/21 02:06:37;;;;;;;0.00;0.00;;;15.70;99.90;;;;;;5097449;28;20053;-80
2022/08/21 02:09:05;;;;;;;0.00;0.00;;;15.70;99.90;;;;;;5114300;28;20044;-80
2022/08/21 02:11:31;;;;;;;0.00;0.00;;;15.70;99.90;;;;;;5097882;28;20161;-80
2022/08/21 02:13:57;;;;;;;0.00;0.00;;;15.60;99.90;;;;;;5097434;28;20043;-80
2022/08/21 02:16:22;;;;;;;0.10;0.10;;;15.60;99.90;;;;;;5097689;28;20103;-80
2022/08/21 02:18:48;;;;;;;0.00;0.00;;;15.60;99.90;;;;;;5114758;28;20403;-80
2022/08/21 02:21:14;;;;;;;0.00;0.00;;;15.50;99.90;;;;;;5097311;28;20440;-80
2022/08/21 02:23:40;;;;;;;0.00;0.00;;;15.50;99.90;;;;;;5097068;28;20039;-80
2022/08/21 02:26:07;;;;;;;0.00;0.00;;;15.50;99.90;;;;;;5113994;28;20070;-80
2022/08/21 02:28:35;;;;;;;0.03;0.03;;;15.50;99.90;;;;;;5114482;28;20043;-80
2022/08/21 02:31:01;;;;;;;0.00;0.00;;;15.40;99.90;;;;;;5113900;28;20085;-80
2022/08/21 02:33:27;;;;;;;0.25;0.13;;;15.50;99.90;;;;;;5097029;28;20039;-80
2022/08/21 02:35:53;;;;;;;0.00;0.00;;;15.40;99.90;;;;;;5113829;28;20043;-80
2022/08/21 02:38:25;;;;;;;0.00;0.00;;;15.40;99.90;;;;;;5096785;28;20048;-80
2022/08/21 02:40:53;;;;;;;0.00;0.00;;;15.40;99.90;;;;;;5113985;28;20082;-80
2022/08/21 02:43:21;;;;;;;0.00;0.00;;;15.40;99.90;;;;;;5113455;28;20054;-80
2022/08/21 02:45:48;;;;;;;0.15;0.00;;;15.40;99.90;;;;;;5096822;28;20047;-80
2022/08/21 02:48:17;;;;;;;0.10;0.10;;;15.30;99.90;;;;;;5096577;28;20498;-80
2022/08/21 02:50:47;;;;;;;0.00;0.00;;;15.40;99.90;;;;;;5113499;28;20138;-80
2022/08/21 02:53:16;;;;;;;0.00;0.00;;;15.30;99.90;;;;;;5113552;28;20051;-80
2022/08/21 02:55:43;;;;;;;0.75;0.32;;;15.30;99.90;;;;;;5113111;28;20060;-80
2022/08/21 02:58:09;;;;;;;0.00;0.00;;;15.30;99.90;;;;;;5113481;28;20047;-80
2022/08/21 03:00:37;;;;;;;0.00;0.00;;;15.30;99.90;;;;;;5113477;28;20063;-80
2022/08/21 03:03:03;;;;;;;0.00;0.00;;;15.30;99.90;;;;;;5112907;28;20475;-80
2022/08/21 03:05:31;;;;;;;0.00;0.00;;;15.20;99.90;;;;;;5113096;28;20078;-80
2022/08/21 03:07:58;;;;;;;0.10;0.00;;;15.20;99.90;;;;;;5113478;28;20059;-80
2022/08/21 03:10:24;;;;;;;0.00;0.00;;;15.20;99.90;;;;;;5096156;28;20495;-80
2022/08/21 03:12:51;;;;;;;0.47;0.13;;;15.20;99.90;;;;;;5095846;28;20046;-80
2022/08/21 03:15:20;;;;;;;0.43;0.10;;;15.10;99.90;;;;;;5113306;28;20086;-80
2022/08/21 03:17:47;;;;;;;0.10;0.00;;;15.20;99.90;;;;;;5113177;28;20046;-80
2022/08/21 03:20:14;;;;;;;0.00;0.00;;;15.20;99.90;;;;;;5113272;28;20059;-80
2022/08/21 03:22:41;;;;;;;0.85;0.20;;;15.20;99.90;;;;;;5113003;28;20483;-80
2022/08/21 03:25:08;;;;;;;0.00;0.00;;;15.20;99.90;;;;;;5096060;28;20044;-80
2022/08/21 03:27:34;;;;;;;0.00;0.00;;;15.10;99.90;;;;;;5096333;28;20050;-80
2022/08/21 03:30:01;;;;;;;0.00;0.00;;;15.10;99.90;;;;;;5095705;28;20459;-80
2022/08/21 03:32:27;;;;;;;0.00;0.00;;;15.10;99.90;;;;;;5113152;28;20529;-80
2022/08/21 03:34:52;;;;;;;0.00;0.00;;;15.20;99.90;;;;;;5095843;28;20091;-80
2022/08/21 03:37:18;;;;;;;0.00;0.00;;;15.10;99.90;;;;;;5096113;28;20052;-80
2022/08/21 03:39:44;;;;;;;0.00;0.00;;;15.10;99.90;;;;;;5113026;28;20394;-80
2022/08/21 03:42:11;;;;;;;0.00;0.00;;;15.10;99.90;;;;;;5112782;28;20044;-80
2022/08/21 03:44:39;;;;;;;0.00;0.00;;;15.10;99.90;;;;;;5112851;28;20048;-79
2022/08/21 03:47:05;;;;;;;0.00;0.00;;;15.10;99.90;;;;;;5112695;28;20055;-79
2022/08/21 03:49:30;;;;;;;0.00;0.00;;;15.00;99.90;;;;;;5112875;28;20046;-79
2022/08/21 03:51:56;;;;;;;0.00;0.00;;;15.00;99.90;;;;;;5113105;28;20039;-79
2022/08/21 03:54:22;;;;;;;0.00;0.00;;;14.90;99.90;;;;;;5112859;28;20048;-79
2022/08/21 03:56:47;;;;;;;0.00;0.00;;;15.00;99.90;;;;;;5112593;28;20052;-79
2022/08/21 03:59:13;;;;;;;0.00;0.00;;;15.00;99.90;;;;;;5112841;28;20074;-79
2022/08/21 04:01:39;;;;;;;0.00;0.00;;;15.00;99.90;;;;;;5113412;28;20042;-79
2022/08/21 04:04:05;;;;;;;2.08;0.52;;;14.90;99.90;;;;;;5096434;28;20148;-79
2022/08/21 04:06:31;;;;;;;0.10;0.00;;;14.90;99.90;;;;;;5095426;28;20383;-79
2022/08/21 04:08:57;;;;;;;0.00;0.00;;;14.90;99.90;;;;;;5094980;28;20052;-80
2022/08/21 04:11:24;;;;;;;0.00;0.00;;;14.90;99.90;;;;;;5112725;28;20043;-80
2022/08/21 04:13:49;;;;;;;0.00;0.00;;;14.80;99.90;;;;;;5112711;28;20063;-80
2022/08/21 04:16:15;;;;;;;0.00;0.00;;;14.90;99.90;;;;;;5095170;28;20487;-79
2022/08/21 04:18:41;;;;;;;0.00;0.00;;;14.90;99.90;;;;;;5112920;28;20372;-80
2022/08/21 04:21:10;;;;;;;0.00;0.00;;;14.90;99.90;;;;;;5112586;28;20104;-79
2022/08/21 04:23:36;;;;;;;0.00;0.00;;;14.90;99.90;;;;;;5112219;28;20501;-80
2022/08/21 04:26:02;;;;;;;0.00;0.00;;;14.90;99.90;;;;;;5115617;28;20147;-79
2022/08/21 04:28:28;;;;;;;0.00;0.00;;;14.80;99.90;;;;;;5115726;28;20083;-80
2022/08/21 04:30:54;;;;;;;0.00;0.00;;;14.80;99.90;;;;;;5116170;28;20084;-80
2022/08/21 04:33:21;;;;;;;0.00;0.00;;;14.80;99.90;;;;;;5116233;28;20079;-80
2022/08/21 04:35:48;;;;;;;0.00;0.00;;;14.80;99.90;;;;;;5099232;28;20055;-80
2022/08/21 04:38:14;;;;;;;0.00;0.00;;;14.80;99.90;;;;;;5098685;28;20411;-81
2022/08/21 04:40:39;;;;;;;0.00;0.00;;;14.80;99.90;;;;;;5116254;28;20040;-81
2022/08/21 04:43:08;;;;;;;0.00;0.00;;;14.90;99.90;;;;;;5098803;28;20422;-80
2022/08/21 04:45:36;;;;;;;0.00;0.00;;;14.80;99.90;;;;;;5116765;28;20399;-81
2022/08/21 04:48:05;;;;;;;0.00;0.00;;;14.80;99.90;;;;;;5115702;28;20131;-80
2022/08/21 04:50:35;;;;;;;0.00;0.00;;;14.90;99.90;;;;;;5098857;28;20052;-80
2022/08/21 04:53:01;;;;;;;0.00;0.00;;;14.90;99.90;;;;;;5099082;28;20089;-81
2022/08/21 04:55:28;;;;;;;0.70;0.30;;;14.90;99.90;;;;;;5098489;28;20055;-81
2022/08/21 04:57:55;;;;;;;0.00;0.00;;;14.90;99.90;;;;;;5099063;28;20044;-81
2022/08/21 05:00:24;;;;;;;0.00;0.00;;;14.90;99.90;;;;;;5098346;28;20059;-80
2022/08/21 05:02:54;;;;;;;0.00;0.00;;;14.90;99.90;;;;;;5098714;28;20478;-80
2022/08/21 05:05:20;;;;;;;0.00;0.00;;;14.90;99.90;;;;;;5115865;28;20046;-81
2022/08/21 05:07:46;;;;;;;0.00;0.00;;;15.00;99.90;;;;;;5098647;28;20051;-81
2022/08/21 05:10:13;;;;;;;0.00;0.00;;;15.00;99.90;;;;;;5098019;28;20059;-80
2022/08/21 05:12:41;;;;;;;0.00;0.00;;;15.00;99.90;;;;;;5098923;28;20176;-80
2022/08/21 05:15:07;;;;;;;0.00;0.00;;;15.00;99.90;;;;;;5115321;28;20039;-81
2022/08/21 05:17:33;;;;;;;0.00;0.00;;;15.10;99.90;;;;;;5098568;28;20047;-81
2022/08/21 05:19:59;;;;;;;0.28;0.25;;;15.10;99.90;;;;;;5098233;28;20055;-80
2022/08/21 05:22:25;;;;;;;0.00;0.00;;;15.10;99.90;;;;;;5115426;28;20500;-80
2022/08/21 05:24:52;;;;;;;0.00;0.00;;;15.10;99.90;;;;;;5115406;28;20040;-80
2022/08/21 05:27:17;;;;;;;0.47;0.45;;;15.20;99.90;;;;;;5115251;28;20502;-80
2022/08/21 05:29:43;;;;;;;0.00;0.00;;;15.20;99.90;;;;;;5098221;28;20044;-80
2022/08/21 05:32:13;;;;;;;0.00;0.00;;;15.20;99.90;;;;;;5098823;28;20075;-80
2022/08/21 05:34:39;;;;;;;0.00;0.00;;;15.30;99.90;;;;;;5098310;28;20047;-80
2022/08/21 05:37:05;;;;;;;0.22;0.22;;;15.30;99.90;;;;;;5114776;28;20100;-80
2022/08/21 05:39:31;;;;;;;0.00;0.00;;;15.30;99.90;;;;;;5098102;28;20104;-80
2022/08/21 05:41:57;;;;;;;0.00;0.00;;;15.30;99.90;;;;;;5098567;28;20130;-80
2022/08/21 05:44:23;;;;;;;0.00;0.00;;;15.30;99.90;;;;;;5114867;28;20157;-80
2022/08/21 05:46:48;;;;;;;0.00;0.00;;;15.30;99.90;;;;;;5097768;28;20059;-80
2022/08/21 05:49:14;;;;;;;0.00;0.00;;;15.40;99.90;;;;;;5114971;28;20111;-80
2022/08/21 05:51:41;;;;;;;0.00;0.00;;;15.40;99.90;;;;;;5097610;28;20138;-80
2022/08/21 05:54:06;;;;;;;0.00;0.00;;;15.50;99.90;;;;;;5114496;28;20392;-80
2022/08/21 05:56:33;;;;;;;0.00;0.00;;;15.50;99.90;;;;;;5114450;28;20089;-80
2022/08/21 05:58:58;;;;;;;0.00;0.00;;;15.50;99.90;;;;;;5114572;28;20051;-81
2022/08/21 06:01:25;;;;;;;0.00;0.00;;;15.50;99.90;;;;;;5113484;28;20074;-80
2022/08/21 06:03:51;;;;;;;0.00;0.00;;;15.50;99.90;;;;;;5097679;28;20055;-79
2022/08/21 06:06:16;;;;;;;0.00;0.00;;;15.50;99.90;;;;;;5111820;28;20130;-81
2022/08/21 06:08:42;;;;;;;0.00;0.00;;;15.60;99.90;;;;;;5094961;28;20188;-79
2022/08/21 06:11:09;;;;;;;0.00;0.00;;;15.60;99.90;;;;;;5080110;28;20051;-80
2022/08/21 06:13:35;;;;;;;0.13;0.13;;;15.70;99.90;;;;;;5092190;28;20130;-80
2022/08/21 06:16:08;;;;;;;0.00;0.00;;;15.80;99.90;;;;;;5096346;28;20035;-80
2022/08/21 06:18:34;;;;;;;0.10;0.10;;;15.90;99.90;;;;;;5111696;28;20052;-80
2022/08/21 06:21:00;;;;;;;0.30;0.30;;;15.90;99.90;;;;;;5088402;28;20032;-79
2022/08/21 06:23:26;;;;;;;0.13;0.00;;;16.00;99.90;;;;;;5079577;28;20048;-80
2022/08/21 06:25:51;;;;;;;0.00;0.00;;;16.00;99.90;;;;;;5109118;28;20047;-80
2022/08/21 06:28:17;;;;;;;0.00;0.00;;;16.10;99.90;;;;;;5093518;28;20152;-80
2022/08/21 06:30:43;;;;;;;0.00;0.00;;;16.10;99.90;;;;;;5097162;28;20446;-79
2022/08/21 06:33:08;;;;;;;0.00;0.00;;;16.20;99.90;;;;;;5114029;28;20047;-79
2022/08/21 06:35:34;;;;;;;0.00;0.00;;;16.20;99.90;;;;;;5113995;28;20079;-79
2022/08/21 06:38:01;;;;;;;0.03;0.03;;;16.30;99.90;;;;;;5113738;28;20373;-79
2022/08/21 06:40:28;;;;;;;0.08;0.08;;;16.30;99.90;;;;;;5113983;28;20049;-79
2022/08/21 06:42:53;;;;;;;2.20;0.47;;;16.40;99.90;;;;;;5113873;28;20039;-79
2022/08/21 06:45:20;;;;;;;0.00;0.00;;;16.40;99.90;;;;;;5096712;28;20047;-79
2022/08/21 06:47:46;;;;;;;0.00;0.00;;;16.50;99.90;;;;;;5095236;28;20492;-79
2022/08/21 06:50:12;;;;;;;0.00;0.00;;;16.60;99.90;;;;;;5096272;28;20052;-79
2022/08/21 06:52:38;;;;;;;0.20;0.20;;;16.70;99.90;;;;;;5113587;28;20051;-79
2022/08/21 06:55:09;;;;;;;0.00;0.00;;;16.80;99.90;;;;;;5113747;28;20048;-80
2022/08/21 06:57:35;;;;;;;0.00;0.00;;;17.30;99.90;;;;;;5096516;28;20048;-80
2022/08/21 07:00:04;;;;;;;0.10;0.10;;;18.20;99.90;;;;;;5096411;28;20142;-80
2022/08/21 07:02:30;;;;;;;0.13;0.13;;;19.40;99.90;;;;;;5096324;28;20043;-81
2022/08/21 07:04:55;;;;;;;0.00;0.00;;;20.60;99.90;;;;;;5113297;28;20135;-81
2022/08/21 07:07:21;;;;;;;0.00;0.00;;;21.60;99.90;;;;;;5114038;28;20039;-81
2022/08/21 07:09:47;;;;;;;0.00;0.00;;;22.40;99.90;;;;;;5096296;28;20051;-81
2022/08/21 07:12:12;;;;;;;0.15;0.05;;;22.80;99.90;;;;;;5113579;28;20100;-81
2022/08/21 07:14:38;;;;;;;0.00;0.00;;;23.30;99.90;;;;;;5096199;28;20055;-81
2022/08/21 07:17:04;;;;;;;0.00;0.00;;;23.60;99.90;;;;;;5096316;28;20089;-81
2022/08/21 07:19:29;;;;;;;0.00;0.00;;;23.90;99.90;;;;;;5095728;28;20095;-81
2022/08/21 07:22:00;;;;;;;0.10;0.10;;;23.70;99.90;;;;;;5096335;28;20047;-81
2022/08/21 07:24:25;;;;;;;2.83;0.20;;;23.10;99.90;;;;;;5096387;28;20134;-81
2022/08/21 07:26:51;;;;;;;0.00;0.00;;;22.70;99.90;;;;;;5096501;28;20078;-81
2022/08/21 07:29:18;;;;;;;0.10;0.00;;;22.30;99.90;;;;;;5096205;28;20475;-81
2022/08/21 07:31:44;;;;;;;0.00;0.00;;;22.00;99.90;;;;;;5095906;28;20459;-80
2022/08/21 07:34:09;;;;;;;0.20;0.05;;;22.00;99.90;;;;;;5114008;28;20082;-80
2022/08/21 07:36:35;;;;;;;0.20;0.20;;;22.30;99.90;;;;;;5113368;28;20043;-81
2022/08/21 07:39:01;;;;;;;0.00;0.00;;;22.70;99.90;;;;;;5096283;28;20052;-81
2022/08/21 07:41:28;;;;;;;0.00;0.00;;;23.00;99.90;;;;;;5095730;28;20121;-81
2022/08/21 07:43:55;;;;;;;0.70;0.30;;;23.10;99.90;;;;;;5113311;28;20039;-80
2022/08/21 07:46:21;;;;;;;1.45;0.45;;;22.80;99.90;;;;;;5113141;28;20048;-81
2022/08/21 07:48:47;;;;;;;0.00;0.00;;;22.50;99.90;;;;;;5113603;28;20390;-81
2022/08/21 07:51:16;;;;;;;0.00;0.00;;;22.20;99.90;;;;;;5113221;28;20040;-81
2022/08/21 07:53:42;;;;;;;0.00;0.00;;;22.00;99.90;;;;;;5095938;28;20148;-80
2022/08/21 07:56:08;;;;;;;0.00;0.00;;;21.90;99.90;;;;;;5112847;28;20105;-79
2022/08/21 07:58:34;;;;;;;0.00;0.00;;;21.70;99.90;;;;;;5096031;28;20039;-81
2022/08/21 08:01:00;;;;;;;0.00;0.00;;;21.70;99.90;;;;;;5099590;28;20049;-81
2022/08/21 08:03:25;;;;;;;0.47;0.30;;;21.50;99.90;;;;;;5116688;28;20046;-81
2022/08/21 08:05:51;;;;;;;0.00;0.00;;;21.40;99.90;;;;;;5116947;28;20043;-81
2022/08/21 08:08:17;;;;;;;0.00;0.00;;;21.40;99.90;;;;;;5116584;28;20042;-81
2022/08/21 08:10:44;;;;;;;0.00;0.00;;;21.30;99.90;;;;;;5116881;28;20048;-81
2022/08/21 08:13:10;;;;;;;0.00;0.00;;;21.20;99.90;;;;;;5098256;28;20105;-80
2022/08/21 08:15:36;;;;;;;0.00;0.00;;;21.10;99.90;;;;;;5116328;28;20043;-81
2022/08/21 08:18:02;;;;;;;0.00;0.00;;;21.00;99.90;;;;;;5116996;28;20044;-81
2022/08/21 08:20:29;;;;;;;0.00;0.00;;;20.90;99.90;;;;;;5117279;28;20048;-81
2022/08/21 08:22:55;;;;;;;0.00;0.00;;;20.90;99.90;;;;;;5099501;28;20100;-81
2022/08/21 08:25:22;;;;;;;0.00;0.00;;;20.80;99.90;;;;;;5116592;28;20047;-81
2022/08/21 08:27:49;;;;;;;8.32;0.90;;;20.70;99.90;;;;;;5116688;28;20122;-81
2022/08/21 08:30:18;;;;;;;0.00;0.00;;;20.70;99.90;;;;;;5099570;28;20069;-81
2022/08/21 08:32:44;;;;;;;0.55;0.20;;;20.80;99.90;;;;;;5099440;28;20065;-81
2022/08/21 08:35:11;;;;;;;1.08;0.20;;;20.80;99.90;;;;;;5099144;28;20056;-81
2022/08/21 08:37:39;;;;;;;0.00;0.00;;;20.80;99.90;;;;;;5116444;28;20066;-81
2022/08/21 08:40:10;;;;;;;0.00;0.00;;;20.80;99.90;;;;;;5116510;28;20040;-81
2022/08/21 08:42:36;;;;;;;0.00;0.00;;;20.80;99.90;;;;;;5099360;28;20130;-81
2022/08/21 08:45:10;;;;;;;0.00;0.00;;;20.90;99.90;;;;;;5099207;28;20118;-81
2022/08/21 08:47:44;;;;;;;0.43;0.00;;;21.00;99.90;;;;;;5117329;28;20039;-81
2022/08/21 08:50:49;;;;;;;0.30;0.30;;;21.00;99.90;;;;;;5098807;28;20086;-82
2022/08/21 08:53:27;;;;;;;0.00;0.00;;;21.20;99.90;;;;;;5017974;28;20624;-81
2022/08/21 08:55:53;;;;;;;0.08;0.00;;;21.40;99.90;;;;;;5017564;28;20053;-81
2022/08/21 08:58:24;;;;;;;0.45;0.20;;;21.40;99.90;;;;;;5017981;28;20056;-81
2022/08/21 09:00:52;;;;;;;0.00;0.00;;;21.50;99.90;;;;;;5001632;28;20143;-81
2022/08/21 09:03:18;;;;;;;0.00;0.00;;;21.60;99.90;;;;;;4999305;28;20050;-80
2022/08/21 09:05:56;;;;;;;0.00;0.00;;;21.50;99.90;;;;;;4981869;28;20132;-81
2022/08/21 09:08:21;;;;;;;1.95;0.43;;;21.60;99.90;;;;;;4982151;28;20049;-80
2022/08/21 09:10:56;;;;;;;0.00;0.00;;;21.80;99.90;;;;;;4997230;28;20587;-81
2022/08/21 09:13:27;;;;;;;0.00;0.00;;;22.00;99.90;;;;;;4981720;28;20375;-80
2022/08/21 09:16:12;;;;;;;0.00;0.00;;;22.20;99.90;;;;;;4998158;28;20042;-81
2022/08/21 09:18:54;;;;;;;0.00;0.00;;;22.30;99.90;;;;;;4981930;28;20111;-82
2022/08/21 09:21:40;;;;;;;0.32;0.32;;;22.50;99.90;;;;;;4981798;28;20092;-80
2022/08/21 09:24:43;;;;;;;0.00;0.00;;;22.70;99.90;;;;;;4981996;28;20108;-82
2022/08/21 09:27:10;;;;;;;0.00;0.00;;;22.80;99.90;;;;;;4981732;28;20049;-82
2022/08/21 09:29:42;;;;;;;0.00;0.00;;;22.90;99.90;;;;;;5019282;28;20067;-83
2022/08/21 09:32:24;;;;;;;0.00;0.00;;;23.00;99.90;;;;;;5078293;28;20043;-82
2022/08/21 09:35:03;;;;;;;0.00;0.00;;;23.00;99.90;;;;;;5094760;28;20093;-82
2022/08/21 09:37:31;;;;;;;0.00;0.00;;;23.00;99.90;;;;;;5095300;28;20036;-82
2022/08/21 09:39:58;;;;;;;0.00;0.00;;;23.10;99.90;;;;;;5077875;28;20048;-82
2022/08/21 09:42:31;;;;;;;0.35;0.30;;;23.10;99.80;;;;;;5077654;28;20447;-83
2022/08/21 09:45:17;;;;;;;0.10;0.10;;;23.10;99.50;;;;;;5094949;28;20083;-82
2022/08/21 09:47:46;;;;;;;0.00;0.00;;;23.20;99.60;;;;;;5077855;28;20058;-81
2022/08/21 09:50:19;;;;;;;0.00;0.00;;;23.20;99.90;;;;;;5094709;28;20043;-82
2022/08/21 09:52:52;;;;;;;0.00;0.00;;;23.30;99.90;;;;;;5077682;28;20052;-82
2022/08/21 09:58:17;;;;;;;0.00;0.00;;;23.30;98.80;;;;;;5094439;28;20052;-82
2022/08/21 10:00:44;;;;;;;0.05;0.00;;;23.40;99.20;;;;;;5077319;28;20083;-82
2022/08/21 10:03:21;;;;;;;0.22;0.00;;;23.40;98.50;;;;;;5076812;28;20522;-82
2022/08/21 10:06:08;;;;;;;0.13;0.00;;;23.50;97.50;;;;;;5077326;28;20391;-82
2022/08/21 10:08:35;;;;;;;0.00;0.00;;;23.50;97.40;;;;;;5094959;28;20412;-82
2022/08/21 10:11:13;;;;;;;0.20;0.08;;;23.60;98.70;;;;;;5077764;28;20052;-82
2022/08/21 10:14:13;;;;;;;0.00;0.00;;;23.70;98.40;;;;;;5077082;28;20052;-82
2022/08/21 10:17:16;;;;;;;0.15;0.10;;;23.70;97.50;;;;;;5077403;28;20093;-81
2022/08/21 10:19:56;;;;;;;0.20;0.10;;;23.70;96.90;;;;;;5077487;28;20044;-81
2022/08/21 10:22:38;;;;;;;0.00;0.00;;;23.70;97.10;;;;;;5093441;28;20044;-81
2022/08/21 10:25:28;;;;;;;0.10;0.10;;;23.90;97.70;;;;;;5076874;28;20044;-82
2022/08/21 10:28:08;;;;;;;0.00;0.00;;;24.00;96.60;;;;;;5076510;28;20055;-81
2022/08/21 10:31:18;;;;;;;0.00;0.00;;;24.10;97.80;;;;;;5093692;28;20043;-81
2022/08/21 10:33:57;;;;;;;0.00;0.00;;;24.20;97.30;;;;;;5076963;28;20036;-81
2022/08/21 10:36:38;;;;;;;0.08;0.08;;;24.50;98.30;;;;;;5076827;28;20126;-81
2022/08/21 10:39:33;;;;;;;0.00;0.00;;;24.80;97.90;;;;;;5076752;28;20065;-81
2022/08/21 10:42:05;;;;;;;0.08;0.05;;;25.00;97.80;;;;;;5076721;28;20118;-82
2022/08/21 10:44:40;;;;;;;0.00;0.00;;;25.20;97.20;;;;;;5093616;28;20052;-81
2022/08/21 10:47:41;;;;;;;0.00;0.00;;;25.40;97.60;;;;;;5093345;28;20047;-82
2022/08/21 10:50:19;;;;;;;0.00;0.00;;;25.40;97.30;;;;;;5073531;28;20075;-82
2022/08/21 10:53:11;;;;;;;0.00;0.00;;;25.00;95.80;;;;;;5093256;28;20048;-82
2022/08/21 10:55:46;;;;;;;0.00;0.00;;;25.00;95.80;;;;;;5076551;28;20098;-82
2022/08/21 10:58:22;;;;;;;0.00;0.00;;;24.90;96.20;;;;;;5076234;28;20052;-82
2022/08/21 11:01:07;;;;;;;0.00;0.00;;;24.90;94.60;;;;;;5076961;28;20047;-82
2022/08/21 11:03:43;;;;;;;0.00;0.00;;;25.00;95.90;;;;;;5092747;28;20046;-82
2022/08/21 11:06:11;;;;;;;0.00;0.00;;;25.10;97.20;;;;;;5076349;28;20047;-81
2022/08/21 11:08:46;;;;;;;0.00;0.00;;;25.30;94.30;;;;;;5075463;28;20150;-82
2022/08/21 11:11:25;;;;;;;0.00;0.00;;;25.60;94.70;;;;;;5076281;28;20051;-82
2022/08/21 11:14:00;;;;;;;0.00;0.00;;;25.70;95.60;;;;;;5093161;28;20551;-82
2022/08/21 11:16:36;;;;;;;0.00;0.00;;;25.50;95.30;;;;;;5093154;28;20385;-83
2022/08/21 11:19:20;;;;;;;0.00;0.00;;;25.50;94.50;;;;;;5092617;28;20558;-82
2022/08/21 11:21:55;;;;;;;0.43;0.07;;;25.50;94.60;;;;;;5093421;28;20048;-82
2022/08/21 11:24:30;;;;;;;0.00;0.00;;;25.30;95.30;;;;;;5075884;28;20055;-82
2022/08/21 11:27:34;;;;;;;0.20;0.15;;;25.40;95.70;;;;;;5092988;28;20048;-82
2022/08/21 11:30:01;;;;;;;0.00;0.00;;;25.60;94.80;;;;;;5018354;28;20098;-81
2022/08/21 11:32:51;;;;;;;0.00;0.00;;;25.90;95.30;;;;;;5034771;28;20385;-82
2022/08/21 11:35:19;;;;;;;0.00;0.00;;;26.10;93.90;;;;;;5020734;28;20381;-82
2022/08/21 11:37:58;;;;;;;0.35;0.10;;;26.30;94.00;;;;;;5022663;28;20080;-82
2022/08/21 11:40:43;;;;;;;0.00;0.00;;;26.50;91.90;;;;;;5039144;28;20110;-82
2022/08/21 11:43:11;;;;;;;0.00;0.00;;;26.50;93.60;;;;;;5038363;28;20106;-81
2022/08/21 11:45:50;;;;;;;0.20;0.20;;;26.70;93.80;;;;;;5022236;28;20061;-82
2022/08/21 11:48:27;;;;;;;0.00;0.00;;;26.70;92.90;;;;;;5038626;28;20045;-82
2022/08/21 11:50:55;;;;;;;0.00;0.00;;;26.80;92.90;;;;;;5022170;28;20045;-81
2022/08/21 11:53:42;;;;;;;0.28;0.28;;;26.80;91.80;;;;;;5038898;28;20162;-81
2022/08/21 11:56:21;;;;;;;0.03;0.03;;;26.80;91.30;;;;;;5021804;28;20056;-81
2022/08/21 11:58:58;;;;;;;0.00;0.00;;;26.90;92.90;;;;;;5022220;28;20045;-83
2022/08/21 12:01:32;;;;;;;0.00;0.00;;;26.90;88.00;;;;;;5021683;28;20065;-82
2022/08/21 12:03:59;;;;;;;;;;;26.80;91.20;;;;;;5022827;28;20377;-82
2022/08/21 12:06:35;;;;;;;0.00;0.00;;;26.80;91.50;;;;;;5058030;28;19920;-82
2022/08/21 12:09:08;;;;;;;0.00;0.00;;;26.90;91.20;;;;;;5079445;28;20040;-82
2022/08/21 12:11:47;;;;;;;0.08;0.00;;;27.00;91.00;;;;;;5097102;28;20048;-82
2022/08/21 12:14:16;;;;;;;0.00;0.00;;;27.10;89.70;;;;;;5079706;28;20044;-80
2022/08/21 12:16:47;;;;;;;0.00;0.00;;;27.20;89.50;;;;;;5096300;28;20074;-81
2022/08/21 12:19:19;;;;;;;0.20;0.20;;;27.20;88.80;;;;;;5079413;28;20044;-80
2022/08/21 12:21:50;;;;;;;0.00;0.00;;;27.40;89.80;;;;;;5079181;28;20048;-81
2022/08/21 12:24:19;;;;;;;0.00;0.00;;;27.30;88.00;;;;;;5096160;28;20483;-81
2022/08/21 12:26:54;;;;;;;0.20;0.03;;;27.00;87.30;;;;;;5095986;28;20527;-81
2022/08/21 12:29:27;;;;;;;0.00;0.00;;;26.90;87.80;;;;;;5095962;28;20135;-81
2022/08/21 12:32:20;;;;;;;0.10;0.00;;;27.20;89.30;;;;;;5096109;28;20056;-81
2022/08/21 12:34:54;;;;;;;3.97;0.22;;;27.30;84.70;;;;;;5079302;28;20048;-81
2022/08/21 12:37:42;;;;;;;0.00;0.00;;;27.50;83.80;;;;;;5079217;28;20048;-81
2022/08/21 12:40:16;;;;;;;0.10;0.05;;;27.60;87.10;;;;;;5078537;28;20052;-81
2022/08/21 12:42:46;;;;;;;2.03;0.00;;;27.70;85.70;;;;;;5078953;28;20128;-81
2022/08/21 12:45:20;;;;;;;0.00;0.00;;;27.50;84.90;;;;;;5079390;28;20097;-81
2022/08/21 12:48:16;;;;;;;0.00;0.00;;;27.60;86.50;;;;;;5095932;28;20079;-81
2022/08/21 12:50:57;;;;;;;0.00;0.00;;;27.60;84.70;;;;;;5078744;28;20044;-80
2022/08/21 12:53:35;;;;;;;0.00;0.00;;;27.50;82.00;;;;;;5079194;28;20089;-81
2022/08/21 12:56:09;;;;;;;0.00;0.00;;;27.50;82.40;;;;;;5078375;28;20135;-82
2022/08/21 12:58:35;;;;;;;0.00;0.00;;;27.40;81.90;;;;;;5078580;28;20053;-81
2022/08/21 13:01:07;;;;;;;0.08;0.08;;;27.30;81.80;;;;;;5078365;28;20109;-81
2022/08/21 13:03:36;;;;;;;0.20;0.00;;;27.20;82.40;;;;;;5095455;28;20054;-80
2022/08/21 13:06:06;;;;;;;0.00;0.00;;;27.20;83.40;;;;;;5095792;28;20066;-81